Airfield :
LOGIN :

Register | Disclaimer

   EN    FR    IT 

 










Legend :    VFR   Marginal VFR   IFR   Intensive IFR   Very Intensive IFR
Visi :
Ceiling :
>= 8 km
>= 3000ft
5 to 8 km
1000 to 3000 ft
1500m to 5 km
500 to 1000 ft
800 to 1500m
200 to 500 ft
< 800m
< 200 ft
Symbols :   Thunderstorms  Fog  Heavy snow  Heavy precipitations  Wind > 20 kt
SIGMETs :     Misc.  Thunderstorms  Icing  Turbulence  Mountain Waves  Volcanic Ashes







- Airport Elevation : 157 ft
- IATA code : SXF


EDDB - Berlin Schönefeld

CURRENT METAR :
  • 210350Z 17007KT CAVOK 18/13 Q1010 NOSIG

EXPIRED METARs :
  • 210320Z 18009KT CAVOK 18/13 Q1010 NOSIG
  • 210250Z 16006KT CAVOK 15/12 Q1011 NOSIG
  • 210220Z 17008KT CAVOK 16/12 Q1011 NOSIG
  • 210150Z VRB01KT CAVOK 15/12 Q1011 NOSIG
  • 210120Z 07001KT CAVOK 16/12 Q1011 NOSIG

TAF TAF EDDB
Valid from the 21 at 00:00 until the 22 at 00:00 UTC


202300Z 2100/2124 17007KT CAVOK
BECMG 2106/2109 19015G25KT
BECMG 2109/2112 23020G30KT
TEMPO 2113/2116 25025G40KT
TEMPO 2116/2118 SHRA BKN030CB
BECMG 2116/2119 24013KT
No reported NOTAMs for that airfield.



MET'MAP, your aeronautical weather chart ! - Copyright ORBIFLY December 2007 - Disclaimer

ORBIFLY MET'MAP TEAM :

Programming & Development : Alexandra Zaïnal
Concept & Development : Baudouin d'Aumeries
Co-Development & Prog : Marc-Olivier Méhu
Technical & hardware support : Manuel Goepfert

Contact : metmap@orbifly.com




SOURCES & CREDITS :

   NOAA